Time;durP1;ratioP1;P1;durP2;ratioP2;P2;SDS_P1;SDS_P2;PMS_P1;PMS_P2;Temp;Humidity;BMP_temperature;BMP_pressure;BME280_temperature;BME280_humidity;BME280_pressure;Samples;Min_cycle;Max_cycle;Signal;HPM_P1;HPM_P2
2022/09/26 00:02:48;;;;;;;3.72;1.23;;;;;;;;;;10501303;28;20126;-83
2022/09/26 00:07:52;;;;;;;2.08;1.10;;;;;;;;;;10482842;28;20552;-79
2022/09/26 00:12:56;;;;;;;1.45;0.70;;;;;;;;;;10485482;28;20054;-79
2022/09/26 00:18:00;;;;;;;1.02;0.82;;;;;;;;;;10476996;28;20137;-79
2022/09/26 00:23:04;;;;;;;3.78;0.90;;;;;;;;;;10493348;28;20131;-83
2022/09/26 00:28:07;;;;;;;1.25;0.90;;;;;;;;;;10487850;28;20554;-79
2022/09/26 00:33:12;;;;;;;0.95;0.77;;;;;;;;;;10522559;28;20066;-78
2022/09/26 00:38:16;;;;;;;1.33;0.80;;;;;;;;;;10486714;28;20051;-82
2022/09/26 00:43:28;;;;;;;1.05;0.80;;;;;;;;;;10465106;28;20033;-79
2022/09/26 00:48:37;;;;;;;0.70;0.70;;;;;;;;;;10467130;28;20048;-78
2022/09/26 00:53:44;;;;;;;1.17;0.80;;;;;;;;;;10486243;28;20071;-79
2022/09/26 00:58:51;;;;;;;1.08;0.70;;;;;;;;;;10486613;28;20665;-83
2022/09/26 01:03:57;;;;;;;1.30;0.80;;;;;;;;;;10484999;28;20043;-79
2022/09/26 01:09:07;;;;;;;1.37;0.80;;;;;;;;;;10504227;28;20043;-79
2022/09/26 01:14:12;;;;;;;1.08;0.70;;;;;;;;;;10472053;28;20078;-79
2022/09/26 01:19:23;;;;;;;1.00;0.70;;;;;;;;;;10481514;28;20135;-79
2022/09/26 01:24:49;;;;;;;0.80;0.63;;;;;;;;;;10453455;28;20051;-80
2022/09/26 01:30:07;;;;;;;0.63;0.43;;;;;;;;;;10459009;28;20040;-80
2022/09/26 01:35:28;;;;;;;1.20;0.70;;;;;;;;;;10464587;28;20788;-80
2022/09/26 01:40:38;;;;;;;1.55;0.70;;;;;;;;;;10464681;28;20047;-78
2022/09/26 01:45:51;;;;;;;0.73;0.65;;;;;;;;;;10485162;28;20118;-78
2022/09/26 01:51:00;;;;;;;2.28;0.60;;;;;;;;;;10458877;28;20119;-79
2022/09/26 01:56:07;;;;;;;1.80;0.52;;;;;;;;;;10463734;28;20063;-79
2022/09/26 02:01:14;;;;;;;0.93;0.65;;;;;;;;;;10473062;28;20040;-77
2022/09/26 02:06:23;;;;;;;2.05;0.57;;;;;;;;;;10463420;28;20032;-80
2022/09/26 02:11:27;;;;;;;0.80;0.50;;;;;;;;;;10462902;28;20517;-78
2022/09/26 02:16:36;;;;;;;0.90;0.60;;;;;;;;;;10488370;28;20044;-81
2022/09/26 02:21:42;;;;;;;1.95;0.57;;;;;;;;;;10454699;28;20143;-78
2022/09/26 02:26:46;;;;;;;1.42;0.60;;;;;;;;;;10472390;28;20041;-80
2022/09/26 02:31:55;;;;;;;0.88;0.55;;;;;;;;;;10463662;28;20052;-77
2022/09/26 02:37:00;;;;;;;1.20;0.80;;;;;;;;;;10466084;28;20408;-78
2022/09/26 02:42:16;;;;;;;1.17;0.57;;;;;;;;;;10465667;28;20041;-78
2022/09/26 02:47:38;;;;;;;0.90;0.60;;;;;;;;;;10482024;28;20047;-78
2022/09/26 02:52:53;;;;;;;3.13;0.70;;;;;;;;;;10458259;28;20119;-79
2022/09/26 02:58:12;;;;;;;1.02;0.70;;;;;;;;;;10481303;28;20032;-79
2022/09/26 03:03:22;;;;;;;0.90;0.65;;;;;;;;;;10464513;28;20480;-78
2022/09/26 03:08:28;;;;;;;0.98;0.63;;;;;;;;;;10463848;28;20044;-77
2022/09/26 03:13:34;;;;;;;1.90;0.60;;;;;;;;;;10464313;28;20090;-78
2022/09/26 03:18:45;;;;;;;0.40;0.40;;;;;;;;;;10475283;28;20052;-78
2022/09/26 03:23:49;;;;;;;0.93;0.63;;;;;;;;;;10466174;28;20079;-78
2022/09/26 03:28:55;;;;;;;0.60;0.60;;;;;;;;;;10486353;28;20044;-78
2022/09/26 03:34:03;;;;;;;0.50;0.50;;;;;;;;;;10484159;28;20127;-78
2022/09/26 03:39:06;;;;;;;2.83;0.50;;;;;;;;;;10482675;28;20064;-78
2022/09/26 03:44:14;;;;;;;0.73;0.52;;;;;;;;;;10501289;28;20389;-79
2022/09/26 03:49:39;;;;;;;0.82;0.60;;;;;;;;;;10452246;28;20044;-77
2022/09/26 03:54:43;;;;;;;1.77;1.13;;;;;;;;;;10499585;28;20852;-78
2022/09/26 03:59:48;;;;;;;1.23;1.00;;;;;;;;;;10498628;28;20047;-79
2022/09/26 04:04:54;;;;;;;1.63;0.90;;;;;;;;;;10498483;28;20044;-79
2022/09/26 04:09:57;;;;;;;0.45;0.45;;;;;;;;;;10524722;28;20036;-79
2022/09/26 04:15:02;;;;;;;1.80;0.60;;;;;;;;;;10477653;28;20444;-78
2022/09/26 04:20:09;;;;;;;0.73;0.70;;;;;;;;;;10485878;28;20049;-79
2022/09/26 04:25:18;;;;;;;1.80;0.80;;;;;;;;;;10480813;28;20033;-78
2022/09/26 04:30:21;;;;;;;0.63;0.63;;;;;;;;;;10474935;28;20527;-79
2022/09/26 04:35:32;;;;;;;1.10;1.00;;;;;;;;;;10505715;28;20040;-78
2022/09/26 04:40:37;;;;;;;2.10;1.00;;;;;;;;;;10454934;28;20071;-78
2022/09/26 04:45:45;;;;;;;1.88;1.60;;;;;;;;;;10465636;28;20404;-78
2022/09/26 04:50:50;;;;;;;1.88;1.25;;;;;;;;;;10499589;28;20048;-78
2022/09/26 04:55:54;;;;;;;3.28;1.30;;;;;;;;;;10488688;28;20043;-79
2022/09/26 05:01:02;;;;;;;2.78;1.30;;;;;;;;;;10499167;28;20118;-79
2022/09/26 05:06:19;;;;;;;1.27;0.80;;;;;;;;;;10514945;28;20504;-78
2022/09/26 05:11:23;;;;;;;1.30;0.90;;;;;;;;;;10486565;28;20036;-78
2022/09/26 05:16:26;;;;;;;1.20;0.82;;;;;;;;;;10491585;28;20082;-79
2022/09/26 05:21:33;;;;;;;0.70;0.70;;;;;;;;;;10489413;28;20504;-76
2022/09/26 05:26:40;;;;;;;0.93;0.70;;;;;;;;;;10487923;28;20739;-78
2022/09/26 05:31:45;;;;;;;1.15;0.73;;;;;;;;;;10526390;28;20056;-78
2022/09/26 05:36:50;;;;;;;2.38;0.77;;;;;;;;;;10510636;28;20485;-78
2022/09/26 05:41:55;;;;;;;2.07;0.90;;;;;;;;;;10493339;28;20044;-80
2022/09/26 05:46:59;;;;;;;0.82;0.70;;;;;;;;;;10466015;28;20063;-78
2022/09/26 05:52:05;;;;;;;2.58;0.90;;;;;;;;;;10512168;28;20044;-80
2022/09/26 05:57:08;;;;;;;2.25;0.82;;;;;;;;;;10482353;28;20087;-79
2022/09/26 06:02:21;;;;;;;0.60;0.60;;;;;;;;;;10495084;28;20048;-80
2022/09/26 06:07:36;;;;;;;0.50;0.50;;;;;;;;;;10473854;28;20074;-80
2022/09/26 06:12:44;;;;;;;0.85;0.70;;;;;;;;;;10477553;28;20044;-77
2022/09/26 06:17:58;;;;;;;1.40;0.80;;;;;;;;;;10505622;28;20069;-77
2022/09/26 06:23:03;;;;;;;3.80;1.08;;;;;;;;;;10511291;28;20040;-77
2022/09/26 06:28:10;;;;;;;1.90;0.73;;;;;;;;;;10494888;28;20241;-80
2022/09/26 06:33:13;;;;;;;1.73;0.93;;;;;;;;;;10498867;28;20070;-79
2022/09/26 06:38:37;;;;;;;2.00;0.82;;;;;;;;;;10533238;28;20044;-76
2022/09/26 06:43:47;;;;;;;1.55;1.10;;;;;;;;;;10500945;28;20045;-79
2022/09/26 06:48:51;;;;;;;1.67;1.05;;;;;;;;;;10498708;28;20132;-79
2022/09/26 06:53:59;;;;;;;2.63;1.48;;;;;;;;;;10503572;28;20391;-79
2022/09/26 06:59:03;;;;;;;3.10;1.60;;;;;;;;;;10493675;28;20053;-79
2022/09/26 07:04:14;;;;;;;1.38;1.10;;;;;;;;;;10490909;28;20050;-79
2022/09/26 07:09:41;;;;;;;3.47;1.00;;;;;;;;;;10513273;28;20044;-79
2022/09/26 07:14:51;;;;;;;0.95;0.77;;;;;;;;;;10489105;28;20051;-79
2022/09/26 07:20:01;;;;;;;1.20;0.80;;;;;;;;;;10474973;28;20043;-80
2022/09/26 07:25:24;;;;;;;2.15;0.90;;;;;;;;;;10519325;28;20040;-79
2022/09/26 07:30:29;;;;;;;1.27;0.90;;;;;;;;;;10464086;28;20444;-79
2022/09/26 07:35:38;;;;;;;2.25;1.33;;;;;;;;;;10493746;28;20056;-77
2022/09/26 07:40:43;;;;;;;1.75;0.70;;;;;;;;;;10499518;28;20041;-79
2022/09/26 07:51:11;;;;;;;0.85;0.80;;;;;;;;;;10490886;28;20745;-79
2022/09/26 07:56:21;;;;;;;2.38;1.00;;;;;;;;;;10503982;28;20605;-79
2022/09/26 08:01:36;;;;;;;2.40;0.90;;;;;;;;;;10477280;28;20052;-79
2022/09/26 08:06:59;;;;;;;1.90;0.93;;;;;;;;;;10493759;28;20089;-79
2022/09/26 08:12:04;;;;;;;2.53;0.98;;;;;;;;;;10468092;28;20412;-79
2022/09/26 08:17:37;;;;;;;3.05;0.88;;;;;;;;;;10506323;28;20134;-76
2022/09/26 08:22:40;;;;;;;2.17;1.25;;;;;;;;;;10481377;28;20052;-77
2022/09/26 08:27:49;;;;;;;5.70;0.60;;;;;;;;;;10468727;28;20045;-77
2022/09/26 08:32:54;;;;;;;0.70;0.50;;;;;;;;;;10475400;28;20041;-78
2022/09/26 08:38:02;;;;;;;1.45;0.90;;;;;;;;;;10469179;28;20037;-78
2022/09/26 08:43:28;;;;;;;3.38;1.20;;;;;;;;;;10472968;28;20049;-77
2022/09/26 08:48:57;;;;;;;2.40;1.10;;;;;;;;;;10460125;28;20061;-77
2022/09/26 08:54:06;;;;;;;7.13;1.00;;;;;;;;;;10470375;28;20153;-78
2022/09/26 08:59:18;;;;;;;5.80;1.38;;;;;;;;;;10467144;28;20115;-78
2022/09/26 09:04:25;;;;;;;1.58;0.90;;;;;;;;;;10459824;28;20497;-78
2022/09/26 09:09:29;;;;;;;1.63;0.80;;;;;;;;;;10449154;28;20056;-78
2022/09/26 09:15:04;;;;;;;1.23;0.68;;;;;;;;;;10457238;28;20040;-77
2022/09/26 09:20:54;;;;;;;4.00;1.00;;;;;;;;;;10469125;28;20068;-78
2022/09/26 09:26:25;;;;;;;2.10;0.82;;;;;;;;;;10481549;28;20063;-77
2022/09/26 09:31:51;;;;;;;2.75;0.98;;;;;;;;;;10452907;28;20060;-78
2022/09/26 09:37:26;;;;;;;1.90;0.85;;;;;;;;;;10475748;28;20068;-77
2022/09/26 09:42:54;;;;;;;2.58;0.70;;;;;;;;;;10506469;28;20052;-77
2022/09/26 09:47:58;;;;;;;1.38;0.65;;;;;;;;;;10455517;28;20043;-77
2022/09/26 09:53:11;;;;;;;3.00;0.80;;;;;;;;;;10486027;28;20047;-77
2022/09/26 09:58:38;;;;;;;2.03;0.68;;;;;;;;;;10470081;28;20732;-78
2022/09/26 10:03:50;;;;;;;1.92;0.50;;;;;;;;;;10487022;28;20478;-78
2022/09/26 10:08:54;;;;;;;1.30;0.40;;;;;;;;;;10488100;28;20071;-78
2022/09/26 10:14:27;;;;;;;2.13;1.00;;;;;;;;;;10509435;28;20127;-78
2022/09/26 10:19:40;;;;;;;2.00;0.85;;;;;;;;;;10498504;28;20482;-79
2022/09/26 10:24:47;;;;;;;2.40;0.95;;;;;;;;;;10507102;28;20214;-78
2022/09/26 10:30:00;;;;;;;1.15;0.55;;;;;;;;;;10455830;28;20044;-78
2022/09/26 10:35:17;;;;;;;1.77;0.75;;;;;;;;;;10475852;28;20499;-78
2022/09/26 10:45:48;;;;;;;4.63;1.25;;;;;;;;;;10508541;28;20513;-77
2022/09/26 10:51:28;;;;;;;2.28;0.70;;;;;;;;;;10494623;28;20116;-78
2022/09/26 10:56:40;;;;;;;3.13;0.68;;;;;;;;;;10478845;28;20530;-78
2022/09/26 11:01:47;;;;;;;2.67;0.82;;;;;;;;;;10469156;28;20401;-78
2022/09/26 11:06:54;;;;;;;1.67;0.90;;;;;;;;;;10469026;28;20051;-78
2022/09/26 11:12:24;;;;;;;1.98;0.88;;;;;;;;;;10462135;28;20046;-78
2022/09/26 11:17:43;;;;;;;1.23;0.75;;;;;;;;;;10463709;28;20120;-78
2022/09/26 11:22:54;;;;;;;1.00;0.82;;;;;;;;;;10495537;28;20044;-77
2022/09/26 11:28:05;;;;;;;2.50;0.90;;;;;;;;;;10475475;28;20089;-78
2022/09/26 11:33:25;;;;;;;1.60;0.60;;;;;;;;;;10463136;28;20041;-77
2022/09/26 11:38:46;;;;;;;1.35;0.70;;;;;;;;;;10502377;28;20051;-78
2022/09/26 11:43:57;;;;;;;1.20;0.70;;;;;;;;;;10451790;28;20056;-78
2022/09/26 11:49:47;;;;;;;0.77;0.40;;;;;;;;;;10481706;28;20040;-78
2022/09/26 11:55:16;;;;;;;0.95;0.52;;;;;;;;;;10501281;28;20040;-78
2022/09/26 12:00:26;;;;;;;2.00;0.45;;;;;;;;;;10498877;28;20037;-79
2022/09/26 12:05:41;;;;;;;0.90;0.60;;;;;;;;;;10486448;28;20039;-78
2022/09/26 12:10:56;;;;;;;0.95;0.40;;;;;;;;;;10497360;28;20044;-79
2022/09/26 12:16:08;;;;;;;1.57;0.73;;;;;;;;;;10456666;28;20051;-79
2022/09/26 12:21:24;;;;;;;0.60;0.50;;;;;;;;;;10480999;28;20048;-79
2022/09/26 12:26:35;;;;;;;1.80;0.63;;;;;;;;;;10527265;28;20044;-78
2022/09/26 12:31:51;;;;;;;0.57;0.50;;;;;;;;;;10501270;28;20078;-79
2022/09/26 12:37:02;;;;;;;;;;;;;;;;;;10472188;28;20060;-78
2022/09/26 12:42:21;;;;;;;0.77;0.30;;;;;;;;;;10493548;28;19920;-78
2022/09/26 12:47:49;;;;;;;0.60;0.30;;;;;;;;;;10503824;28;20047;-79
2022/09/26 12:53:18;;;;;;;1.13;0.43;;;;;;;;;;10475928;28;20063;-78
2022/09/26 12:58:42;;;;;;;0.45;0.45;;;;;;;;;;10500683;28;20052;-78
2022/09/26 13:04:01;;;;;;;1.30;0.75;;;;;;;;;;10521102;28;20783;-79
2022/09/26 13:09:18;;;;;;;1.38;0.57;;;;;;;;;;10499437;28;20128;-80
2022/09/26 13:14:56;;;;;;;0.40;0.30;;;;;;;;;;10481110;28;20055;-76
2022/09/26 13:20:04;;;;;;;1.80;0.40;;;;;;;;;;10487709;28;20063;-78
2022/09/26 13:25:16;;;;;;;0.40;0.40;;;;;;;;;;10478786;28;20392;-76
2022/09/26 13:30:25;;;;;;;2.22;0.57;;;;;;;;;;10484114;28;20047;-78
2022/09/26 13:35:32;;;;;;;1.30;0.40;;;;;;;;;;10523966;28;20040;-78
2022/09/26 13:40:40;;;;;;;1.25;0.40;;;;;;;;;;10507768;28;20044;-79
2022/09/26 13:45:57;;;;;;;0.30;0.30;;;;;;;;;;10524010;28;20055;-78
2022/09/26 13:51:10;;;;;;;0.35;0.30;;;;;;;;;;10487778;28;20561;-77
2022/09/26 13:56:46;;;;;;;2.17;0.40;;;;;;;;;;10514261;28;20050;-77
2022/09/26 14:02:28;;;;;;;1.65;0.40;;;;;;;;;;10501021;28;20041;-78
2022/09/26 14:13:20;;;;;;;0.85;0.20;;;;;;;;;;10500206;28;20051;-77
2022/09/26 14:18:55;;;;;;;1.40;0.40;;;;;;;;;;10481914;28;20036;-77
2022/09/26 14:24:41;;;;;;;0.77;0.30;;;;;;;;;;10476381;28;20563;-77
2022/09/26 14:29:50;;;;;;;1.70;0.60;;;;;;;;;;10520533;28;20040;-77
2022/09/26 14:35:00;;;;;;;0.50;0.40;;;;;;;;;;10520794;28;20108;-77
2022/09/26 14:40:28;;;;;;;0.98;0.30;;;;;;;;;;10499321;28;20028;-77
2022/09/26 14:45:46;;;;;;;0.80;0.28;;;;;;;;;;10500111;28;20060;-77
2022/09/26 14:50:56;;;;;;;0.30;0.30;;;;;;;;;;10507606;28;20504;-77
2022/09/26 14:56:04;;;;;;;0.80;0.25;;;;;;;;;;10497950;28;20040;-77
2022/09/26 15:01:17;;;;;;;0.93;0.30;;;;;;;;;;10477956;28;20123;-77
2022/09/26 15:06:24;;;;;;;0.68;0.35;;;;;;;;;;10473063;28;20222;-77
2022/09/26 15:11:33;;;;;;;0.47;0.20;;;;;;;;;;10492998;28;20031;-77
2022/09/26 15:16:40;;;;;;;0.45;0.30;;;;;;;;;;10481589;28;20688;-77
2022/09/26 15:21:50;;;;;;;0.90;0.32;;;;;;;;;;10492416;28;20412;-77
2022/09/26 15:26:55;;;;;;;0.70;0.35;;;;;;;;;;10478937;28;20110;-78
2022/09/26 15:31:58;;;;;;;0.82;0.30;;;;;;;;;;10504188;28;20085;-77
2022/09/26 15:37:15;;;;;;;1.48;0.30;;;;;;;;;;10478013;28;20048;-77
2022/09/26 15:47:47;;;;;;;0.35;0.30;;;;;;;;;;10496789;28;20081;-77
2022/09/26 15:53:01;;;;;;;1.20;0.30;;;;;;;;;;10478352;28;20500;-78
2022/09/26 15:58:07;;;;;;;2.65;0.60;;;;;;;;;;10479892;28;20070;-78
2022/09/26 16:03:47;;;;;;;2.28;0.70;;;;;;;;;;10477665;28;20036;-81
2022/09/26 16:08:54;;;;;;;2.92;0.73;;;;;;;;;;10493647;28;20049;-79
2022/09/26 16:13:59;;;;;;;2.50;0.80;;;;;;;;;;10486356;28;20051;-78
2022/09/26 16:19:04;;;;;;;1.67;0.95;;;;;;;;;;10493533;28;20094;-78
2022/09/26 16:24:33;;;;;;;0.32;0.32;;;;;;;;;;10491448;28;20040;-79
2022/09/26 16:29:37;;;;;;;0.17;0.17;;;;;;;;;;10467680;28;20520;-78
2022/09/26 16:34:41;;;;;;;0.57;0.35;;;;;;;;;;10477643;28;20425;-79
2022/09/26 16:39:54;;;;;;;0.20;0.20;;;;;;;;;;10463833;28;20127;-78
2022/09/26 16:44:58;;;;;;;0.43;0.30;;;;;;;;;;10496285;28;20511;-78
2022/09/26 16:50:18;;;;;;;1.45;0.55;;;;;;;;;;10469533;28;20454;-77
2022/09/26 16:55:24;;;;;;;0.32;0.30;;;;;;;;;;10507270;28;20045;-77
2022/09/26 17:05:56;;;;;;;0.75;0.30;;;;;;;;;;10513471;28;20070;-78
2022/09/26 17:11:03;;;;;;;0.95;0.55;;;;;;;;;;10494271;28;20451;-78
2022/09/26 17:16:07;;;;;;;1.27;0.40;;;;;;;;;;10506534;28;20044;-78
2022/09/26 17:21:11;;;;;;;1.48;0.55;;;;;;;;;;10524343;28;20074;-79
2022/09/26 17:26:22;;;;;;;2.72;0.45;;;;;;;;;;10530067;28;20131;-78
2022/09/26 17:31:26;;;;;;;0.40;0.40;;;;;;;;;;10509323;28;20040;-76
2022/09/26 17:36:29;;;;;;;1.13;0.30;;;;;;;;;;10481586;28;20067;-79
2022/09/26 17:41:36;;;;;;;0.60;0.30;;;;;;;;;;10421232;28;20050;-78
2022/09/26 17:46:41;;;;;;;0.80;0.30;;;;;;;;;;10425236;28;20041;-78
2022/09/26 17:51:44;;;;;;;0.30;0.30;;;;;;;;;;10426463;28;20049;-78
2022/09/26 17:56:51;;;;;;;1.20;0.40;;;;;;;;;;10438110;28;20120;-79
2022/09/26 18:01:58;;;;;;;0.60;0.60;;;;;;;;;;10445875;28;20493;-79
2022/09/26 18:07:04;;;;;;;0.68;0.40;;;;;;;;;;10410658;28;20124;-76
2022/09/26 18:12:16;;;;;;;0.83;0.30;;;;;;;;;;10413061;28;20037;-79
2022/09/26 18:17:20;;;;;;;0.50;0.30;;;;;;;;;;10449772;28;20459;-79
2022/09/26 18:22:30;;;;;;;0.50;0.30;;;;;;;;;;10432209;28;20434;-75
2022/09/26 18:27:39;;;;;;;2.30;0.85;;;;;;;;;;10437177;28;20136;-80
2022/09/26 18:32:46;;;;;;;1.33;0.50;;;;;;;;;;10405782;28;20639;-79
2022/09/26 18:37:49;;;;;;;1.85;0.50;;;;;;;;;;10428096;28;20072;-78
2022/09/26 18:42:54;;;;;;;1.75;0.50;;;;;;;;;;10440016;28;20504;-78
2022/09/26 18:47:58;;;;;;;0.90;0.57;;;;;;;;;;10468318;28;20583;-78
2022/09/26 18:53:01;;;;;;;0.77;0.50;;;;;;;;;;10448999;28;20082;-78
2022/09/26 18:58:26;;;;;;;0.30;0.30;;;;;;;;;;10445983;28;20055;-77
2022/09/26 19:03:31;;;;;;;0.75;0.50;;;;;;;;;;10445718;28;20037;-78
2022/09/26 19:08:37;;;;;;;0.73;0.43;;;;;;;;;;10453939;28;20119;-78
2022/09/26 19:13:42;;;;;;;1.40;0.52;;;;;;;;;;10447884;28;20045;-77
2022/09/26 19:18:47;;;;;;;0.67;0.30;;;;;;;;;;10476105;28;20138;-77
2022/09/26 19:23:51;;;;;;;0.85;0.50;;;;;;;;;;10449060;28;20041;-78
2022/09/26 19:28:57;;;;;;;1.00;0.60;;;;;;;;;;10453782;28;20069;-78
2022/09/26 19:34:01;;;;;;;;;;;;;;;;;;10463645;28;20043;-77
2022/09/26 19:39:09;;;;;;;0.93;0.73;;;;;;;;;;10495527;28;19930;-77
2022/09/26 19:44:14;;;;;;;1.45;0.40;;;;;;;;;;10462894;28;20051;-78
2022/09/26 19:49:19;;;;;;;1.35;0.40;;;;;;;;;;10517125;28;20127;-77
2022/09/26 19:54:23;;;;;;;1.20;0.40;;;;;;;;;;10479816;28;20051;-77
2022/09/26 19:59:28;;;;;;;1.10;0.60;;;;;;;;;;10503041;28;20040;-78
2022/09/26 20:04:32;;;;;;;1.17;0.60;;;;;;;;;;10521485;28;20423;-78
2022/09/26 20:09:35;;;;;;;0.70;0.70;;;;;;;;;;10519768;28;20040;-77
2022/09/26 20:14:40;;;;;;;0.60;0.40;;;;;;;;;;10463227;28;20391;-77
2022/09/26 20:19:45;;;;;;;0.40;0.40;;;;;;;;;;10517369;28;20516;-77
2022/09/26 20:24:55;;;;;;;0.77;0.40;;;;;;;;;;10510965;28;20119;-77
2022/09/26 20:35:21;;;;;;;0.30;0.30;;;;;;;;;;10474199;28;20501;-76
2022/09/26 20:40:25;;;;;;;0.30;0.30;;;;;;;;;;10498002;28;20128;-77
2022/09/26 20:45:37;;;;;;;0.40;0.40;;;;;;;;;;10493811;28;20123;-76
2022/09/26 20:50:40;;;;;;;0.30;0.30;;;;;;;;;;10512621;28;20056;-77
2022/09/26 20:55:44;;;;;;;0.95;0.50;;;;;;;;;;10488853;28;20052;-76
2022/09/26 21:00:52;;;;;;;0.50;0.35;;;;;;;;;;10492834;28;20060;-76
2022/09/26 21:05:55;;;;;;;0.77;0.40;;;;;;;;;;10504819;28;20052;-77
2022/09/26 21:10:59;;;;;;;0.30;0.30;;;;;;;;;;10491606;28;20036;-77
2022/09/26 21:16:04;;;;;;;0.28;0.25;;;;;;;;;;10480369;28;20059;-79
2022/09/26 21:21:13;;;;;;;1.10;0.22;;;;;;;;;;10521034;28;20048;-79
2022/09/26 21:26:26;;;;;;;0.20;0.20;;;;;;;;;;10481559;28;20115;-80
2022/09/26 21:31:34;;;;;;;0.68;0.30;;;;;;;;;;10507792;28;20044;-76
2022/09/26 21:36:40;;;;;;;0.20;0.20;;;;;;;;;;10489828;28;20460;-77
2022/09/26 21:41:44;;;;;;;0.30;0.30;;;;;;;;;;10487558;28;20071;-79
2022/09/26 21:46:49;;;;;;;0.57;0.30;;;;;;;;;;10457174;28;20056;-77
2022/09/26 21:51:55;;;;;;;1.08;0.20;;;;;;;;;;10478068;28;20048;-77
2022/09/26 21:57:03;;;;;;;0.30;0.30;;;;;;;;;;10521689;28;20040;-77
2022/09/26 22:02:08;;;;;;;0.20;0.20;;;;;;;;;;10505060;28;20056;-77
2022/09/26 22:07:11;;;;;;;1.55;0.20;;;;;;;;;;10487296;28;20051;-77
2022/09/26 22:12:14;;;;;;;0.20;0.20;;;;;;;;;;10521238;28;20051;-77
2022/09/26 22:17:19;;;;;;;0.20;0.20;;;;;;;;;;10522676;28;20455;-79
2022/09/26 22:22:23;;;;;;;0.20;0.20;;;;;;;;;;10518240;28;20050;-77
2022/09/26 22:27:26;;;;;;;0.10;0.10;;;;;;;;;;10536594;28;20108;-79
2022/09/26 22:32:31;;;;;;;0.32;0.22;;;;;;;;;;10486011;28;20045;-78
2022/09/26 22:37:34;;;;;;;0.47;0.40;;;;;;;;;;10516198;28;20512;-79
2022/09/26 22:42:38;;;;;;;0.10;0.10;;;;;;;;;;10515575;28;20064;-79
2022/09/26 22:47:42;;;;;;;0.73;0.30;;;;;;;;;;10476137;28;20052;-77
2022/09/26 22:52:46;;;;;;;0.90;0.30;;;;;;;;;;10477660;28;20044;-78
2022/09/26 22:57:50;;;;;;;1.15;0.52;;;;;;;;;;10510892;28;20551;-77
2022/09/26 23:02:55;;;;;;;0.88;0.30;;;;;;;;;;10496579;28;20127;-77
2022/09/26 23:07:58;;;;;;;1.13;0.40;;;;;;;;;;10486082;28;20058;-78
2022/09/26 23:13:02;;;;;;;1.40;0.88;;;;;;;;;;10500917;28;20115;-78
2022/09/26 23:18:06;;;;;;;2.05;0.50;;;;;;;;;;10481858;28;20426;-78
2022/09/26 23:23:11;;;;;;;0.60;0.30;;;;;;;;;;10519748;28;20044;-78
2022/09/26 23:28:15;;;;;;;2.50;0.80;;;;;;;;;;10498462;28;20079;-78
2022/09/26 23:33:19;;;;;;;0.85;0.45;;;;;;;;;;10484096;28;20036;-77
2022/09/26 23:38:22;;;;;;;1.23;0.50;;;;;;;;;;10463734;28;20044;-77
2022/09/26 23:43:26;;;;;;;2.20;0.77;;;;;;;;;;10502715;28;20036;-77
2022/09/26 23:48:30;;;;;;;2.03;1.08;;;;;;;;;;10454078;28;20047;-78
2022/09/26 23:53:34;;;;;;;4.10;0.73;;;;;;;;;;10477594;28;20416;-79
2022/09/26 23:58:37;;;;;;;1.83;0.80;;;;;;;;;;10470732;28;20044;-79
